ADDS METAR Data INFO
IDs: Format: Raw Decoded Include TAF

Data at: 0151 UTC 17 Oct 2017

KVBW 170135Z AUTO 34004KT 10SM CLR 09/04 A3024 RMK AO2 T00850038
KVBW 170115Z AUTO 02009KT 10SM CLR 09/04 A3024 RMK AO2 T00910036
KVBW 170055Z AUTO 32003KT 10SM CLR 10/03 A3023 RMK AO2 T01040027
KVBW 170035Z AUTO 31007KT 10SM CLR 11/03 A3022 RMK AO2 T01060029
KVBW 170015Z AUTO 32004KT 10SM CLR 11/03 A3022 RMK AO2 T01100027
KVBW 162355Z AUTO 32004KT 10SM CLR 11/03 A3022 RMK AO2 T01100034 10155 20110
KVBW 162335Z AUTO 36005KT 10SM SCT060 12/04 A3021 RMK AO2 T01150037
KVBW 162315Z AUTO 35005KT 10SM SCT070 12/04 A3020 RMK AO2 T01170041
KVBW 162255Z AUTO 33004KT 10SM SCT070 12/04 A3018 RMK AO2 T01230038
KVBW 162235Z AUTO 33007KT 10SM CLR 13/03 A3017 RMK AO2 T01300032
KVBW 162215Z AUTO 33010G15KT 10SM SCT050 14/03 A3016 RMK AO2 T01400029
KVBW 162155Z AUTO 32006G15KT 290V350 10SM SCT050 14/04 A3015 RMK AO2 T01420035
KVBW 162135Z AUTO 33005G18KT 10SM OVC050 15/04 A3015 RMK AO2 T01500036
KVBW 162115Z AUTO 36009G15KT 310V040 10SM BKN050 15/04 A3015 RMK AO2 T01520035
KVBW 162055Z AUTO 33006G16KT 10SM SCT050 BKN065 14/03 A3015 RMK AO2 T01400033
KVBW 162035Z AUTO 36008KT 310V020 10SM BKN050 OVC065 14/04 A3015 RMK AO2 T01420043
KVBW 162015Z AUTO 01009G19KT 10SM SCT055 OVC065 15/04 A3014 RMK AO2 T01490041
KVBW 161955Z AUTO 31011G16KT 10SM SCT055 BKN065 15/04 A3014 RMK AO2 T01460042
KVBW 161935Z AUTO 31013G19KT 10SM SCT065 15/04 A3014 RMK AO2 T01480038
KVBW 161915Z AUTO 33010G18KT 10SM SCT050 SCT065 16/04 A3013 RMK AO2 T01550042
KVBW 161855Z AUTO 34007G16KT 290V010 10SM BKN050 OVC065 15/04 A3013 RMK AO2 T01540041
KVBW 161835Z AUTO 32012G20KT 10SM BKN050 15/04 A3013 RMK AO2 T01460036
KVBW 161815Z AUTO 34007G16KT 310V030 10SM BKN050 BKN060 14/04 A3014 RMK AO2 T01400043
KVBW 161755Z AUTO 32012G21KT 10SM BKN050 15/04 A3014 RMK AO2 T01450035 10153 20135
KVBW 161735Z AUTO 32009G16KT 10SM BKN050 14/03 A3014 RMK AO2 T01420034
KVBW 161715Z AUTO 34007G18KT 310V020 10SM OVC050 14/03 A3014 RMK AO2 T01400034
KVBW 161655Z AUTO 35007G20KT 300V020 10SM OVC050 14/04 A3015 RMK AO2 T01410036
KVBW 161635Z AUTO 35011G18KT 300V010 10SM OVC050 15/04 A3014 RMK AO2 T01450043
KVBW 161615Z AUTO 33009G17KT 10SM OVC048 14/04 A3014 RMK AO2 T01390043
KVBW 161555Z AUTO 32009G20KT 10SM BKN050 15/04 A3013 RMK AO2 T01470042
KVBW 161535Z AUTO 32010G19KT 300V360 10SM BKN048 15/04 A3012 RMK AO2 T01470041
KVBW 161515Z AUTO 32009G17KT 10SM OVC048 14/05 A3012 RMK AO2 T01440045
KVBW 161455Z AUTO 34007KT 310V010 10SM OVC046 14/05 A3012 RMK AO2 T01360050
KVBW 161435Z AUTO 35006KT 320V020 10SM OVC048 14/05 A3011 RMK AO2 T01370051
KVBW 161415Z AUTO 33005KT 10SM OVC048 14/05 A3011 RMK AO2 T01380053
KVBW 161355Z AUTO 31007KT 10SM SCT048 14/05 A3010 RMK AO2 T01400053
KVBW 161335Z AUTO 32006KT 10SM SCT048 14/05 A3009 RMK AO2 T01360054
KVBW 161315Z AUTO 32005KT 10SM BKN048 14/06 A3010 RMK AO2 T01360056
KVBW 161255Z AUTO 32006KT 10SM OVC048 14/05 A3009 RMK AO2 T01360054
KVBW 161235Z AUTO 31008KT 10SM OVC048 14/06 A3009 RMK AO2 T01370057
KVBW 161215Z AUTO 32003KT 10SM OVC048 14/07 A3007 RMK AO2 T01350072
KVBW 161155Z AUTO 10SM BKN048 14/07 A3005 RMK AO2 60003 70004 T01370066 10174 20134
KVBW 161135Z AUTO 32003KT 10SM BKN046 14/07 A3005 RMK AO2 T01400066
KVBW 161115Z AUTO 34003KT 10SM BKN046 14/06 A3004 RMK AO2 T01410064
KVBW 161055Z AUTO 35003KT 10SM SCT046 14/07 A3002 RMK AO2 T01400071
KVBW 161035Z AUTO 34004KT 10SM CLR 14/08 A3002 RMK AO2 T01420078
KVBW 161015Z AUTO 33005KT 10SM CLR 15/08 A3001 RMK AO2 T01470083
KVBW 160955Z AUTO 35005KT 10SM CLR 15/09 A3000 RMK AO2 T01470092
KVBW 160935Z AUTO 33005KT 10SM SCT120 14/10 A3000 RMK AO2 T01440095
KVBW 160915Z AUTO 32004KT 10SM SCT100 BKN120 15/10 A3001 RMK AO2 T01450100
KVBW 160900Z AUTO 33006KT 10SM SCT095 OVC120 15/09 A2999 RMK AO2 T01490092
KVBW 160835Z AUTO 33010G18KT 10SM OVC110 15/09 A2999 RMK AO2 T01540092
KVBW 160815Z AUTO 33012G16KT 10SM SCT075 OVC100 16/10 A2997 RMK AO2 T01550100
KVBW 160755Z AUTO 32007KT 300V360 10SM SCT075 OVC100 16/12 A2997 RMK AO2 P0002 T01600123
KVBW 160735Z AUTO 34008KT 300V360 10SM SCT075 OVC100 16/13 A2997 RMK AO2 P0001 T01620133
KVBW 160715Z AUTO 00000KT 10SM SCT075 OVC100 16/15 A2998 RMK AO2 P0001 T01620151
KVBW 160655Z AUTO 36005KT 10SM SCT050 BKN090 OVC110 16/16 A2998 RMK AO2 P0001 T01620160
KVBW 160635Z AUTO 00000KT 10SM SCT048 SCT060 OVC080 16/16 A2998 RMK AO2 P0001 T01630162
KVBW 160615Z AUTO 01006KT 10SM SCT048 SCT060 OVC070 17/16 A2997 RMK AO2 T01690159
KVBW 160555Z AUTO 32005KT 10SM SCT022 SCT037 OVC070 18/16 A2997 RMK AO2 P0001 60001 T01750158 10222 20175 402800111
KVBW 160535Z AUTO 01007KT 330V030 7SM SCT024 BKN050 OVC070 18/16 A2996 RMK AO2 P0001 T01830162
KVBW 160515Z AUTO 32006KT 10SM SCT029 SCT038 OVC050 20/16 A2995 RMK AO2 T01980158
KVBW 160455Z AUTO 35008KT 280V020 10SM OVC048 20/16 A2995 RMK AO2 T02020160
KVBW 160435Z AUTO 29010KT 10SM OVC044 21/16 A2995 RMK AO2 T02060163
KVBW 160415Z AUTO 29009KT 10SM BKN044 BKN050 OVC070 21/16 A2994 RMK AO2 T02080161
KVBW 160355Z AUTO 29009KT 10SM SCT050 OVC070 20/16 A2993 RMK AO2 T02020155
KVBW 160340Z AUTO 34007KT 300V020 10SM BKN050 OVC070 20/16 A2992 RMK AO2 T01990159
KVBW 160315Z AUTO 28009KT 10SM SCT055 OVC080 20/17 A2992 RMK AO2 T01990170
KVBW 160255Z AUTO 13004KT 10SM SCT065 BKN080 OVC100 20/17 A2991 RMK AO2 T01990170
KVBW 160235Z AUTO 14003KT 10SM SCT065 SCT075 BKN090 20/17 A2990 RMK AO2 T01970171
KVBW 160215Z AUTO 16005KT 10SM BKN065 BKN075 BKN100 20/17 A2989 RMK AO2 T01950168
KVBW 160155Z AUTO 18009KT 10SM BKN065 BKN075 OVC100 20/17 A2990 RMK AO2 T02000167
KVBW 160135Z AUTO 19011KT 10SM BKN075 OVC085 21/16 A2990 RMK AO2 T02090161
KVBW 160115Z AUTO 19011KT 10SM OVC075 21/15 A2990 RMK AO2 T02100154
KVBW 160055Z AUTO 14003KT 10SM OVC075 20/15 A2990 RMK AO2 T02040149
KVBW 160035Z AUTO 20008KT 10SM SCT075 SCT100 21/14 A2990 RMK AO2 T02100144
KVBW 160015Z AUTO 21005KT 10SM CLR 22/14 A2991 RMK AO2 T02150143
KVBW 152355Z AUTO 20008KT 10SM CLR 22/14 A2989 RMK AO2 T02190141 10280 20216
KVBW 152335Z AUTO 22005KT 10SM CLR 22/14 A2990 RMK AO2 T02210142
KVBW 152315Z AUTO 20006KT 10SM CLR 22/14 A2990 RMK AO2 T02190142
KVBW 152255Z AUTO 22006KT 10SM CLR 23/14 A2990 RMK AO2 T02330140
KVBW 152235Z AUTO 20006KT 10SM CLR 24/14 A2989 RMK AO2 T02410143
KVBW 152215Z AUTO 23005KT 10SM CLR 26/14 A2991 RMK AO2 T02640138
KVBW 152155Z AUTO 10SM CLR 27/13 A2990 RMK AO2 T02700131
KVBW 152135Z AUTO 23010G15KT 10SM CLR 28/14 A2990 RMK AO2 T02750139
KVBW 152115Z AUTO 22010KT 10SM SCT070 SCT080 28/16 A2991 RMK AO2 T02770157
KVBW 152055Z AUTO 21012G15KT 150V220 10SM SCT070 SCT080 27/16 A2991 RMK AO2 T02710158
KVBW 152035Z AUTO 17007G14KT 130V220 10SM SCT065 SCT090 28/16 A2992 RMK AO2 T02770161
KVBW 152015Z AUTO 21011G17KT 10SM SCT075 SCT090 28/16 A2992 RMK AO2 T02770161
KVBW 151955Z AUTO 20011G17KT 10SM CLR 28/16 A2992 RMK AO2 T02800163
KVBW 151935Z AUTO 20011G15KT 160V220 10SM CLR 28/16 A2993 RMK AO2 T02800162
KVBW 151915Z AUTO 20012G16KT 10SM CLR 28/16 A2993 RMK AO2 T02790162
KVBW 151855Z AUTO 19011G16KT 140V200 10SM CLR 28/16 A2994 RMK AO2 T02760160
KVBW 151835Z AUTO 21012G16KT 10SM CLR 28/16 A2995 RMK AO2 T02760159
KVBW 151815Z AUTO 21012G17KT 10SM CLR 27/15 A2996 RMK AO2 T02740154
KVBW 151755Z AUTO 21014G20KT 10SM CLR 27/15 A2997 RMK AO2 T02700152 10272 20113
KVBW 151735Z AUTO 19006KT 10SM CLR 26/17 A2998 RMK AO2 T02630169
KVBW 151715Z AUTO 18005KT 10SM CLR 26/17 A2999 RMK AO2 T02550166
KVBW 151655Z AUTO 21010G16KT 10SM CLR 25/17 A3000 RMK AO2 T02520168
KVBW 151635Z AUTO 18009KT 10SM CLR 25/17 A3002 RMK AO2 T02450168
KVBW 151615Z AUTO 20007G15KT 10SM CLR 24/17 A3003 RMK AO2 T02390169
KVBW 151555Z AUTO 19005G16KT 10SM CLR 23/17 A3003 RMK AO2 T02320170
KVBW 151540Z AUTO 22010G14KT 10SM CLR 23/17 A3004 RMK AO2 T02290172
KVBW 151515Z AUTO 21008KT 10SM CLR 22/17 A3005 RMK AO2 T02190171
KVBW 151455Z AUTO 22009KT 10SM CLR 20/17 A3007 RMK AO2 T02010168
KVBW 151435Z AUTO 22003KT 10SM CLR 20/17 A3008 RMK AO2 T01960171
KVBW 151415Z AUTO 20005KT 10SM CLR 19/17 A3008 RMK AO2 T01880170
KVBW 151355Z AUTO 15006KT 120V210 10SM CLR 18/17 A3009 RMK AO2 T01810168